• Join FlightAware (Why Join?)
  • Login
  • US Flag 
05:11AM EDT


 

Airport Tracker/Info


-or-


 

Live Flight TrackerFlight Track Log ✈ SKW5619 ✈ 21-Sep-2013 ✈ KDEN - KHLN

Flight Track Log - Related Links

Times and Time Zones

All times are in EDT time to prevent confusion due to time zone crossing. See the SKW5619 flight status page for this flight to view local times or setup timezone preferences in your user account.

Time Position Orientation Groundspeed Altitude Reporting Facility
EDT Latitude Longitude Course Direction KTS MPH feet Rate Location/Type
09:31PM 39.8769 -104.6094 13° North 153 176 6,500  Level Denver Center
09:32PM 39.8892 -104.5286 79° East 218 251 8,100 1,440 Climbing Denver Center
09:33PM 39.9128 -104.4350 72° East 273 314 9,500 1,440 Climbing Denver Center
09:34PM 40.2462 -105.0375 348° North  Level Estimated
09:34PM 39.9736 -104.3831 33° Northeast 310 357 11,100  Level Denver Center
09:35PM 40.3421 -105.1292 346° North  Level Estimated
09:35PM 40.0750 -104.3967 354° North 327 376 13,300  Level Denver Center
09:36PM 40.4580 -105.0950 13° North  Level FlightAware Approximate
09:36PM 40.1642 -104.4822 324° Northwest 324 373 15,900  Level Denver Center
09:37PM 40.2447 -104.5583 324° Northwest 332 382 17,900 1,680 Climbing Denver Center
09:38PM 40.3242 -104.6239 328° Northwest 340 391 19,400 1,380 Climbing Denver Center
09:39PM 40.4183 -104.6708 339° North 357 411 20,800 1,260 Climbing Denver Center
09:40PM 40.5119 -104.7164 340° North 359 413 22,100 1,140 Climbing Denver Center
09:41PM 40.6167 -104.7689 339° North 373 429 23,200 1,020 Climbing Denver Center
09:42PM 40.7225 -104.8208 340° North 374 430 24,400 1,020 Climbing Denver Center
09:43PM 40.8439 -104.8783 340° North 382 440 25,600 840 Climbing Denver Center
09:44PM 40.9492 -104.9283 340° North 397 457 26,200 780 Climbing Denver Center
09:45PM 41.0572 -104.9836 339° North 410 472 27,200 900 Climbing Denver Center
09:47PM 41.1592 -105.0333 340° North 409 471 28,100 780 Climbing Denver Center
09:48PM 41.2617 -105.0825 340° North 410 472 28,900 780 Climbing Denver Center
09:49PM 41.3806 -105.1419 339° North 408 470 29,700 720 Climbing Denver Center
09:50PM 41.4842 -105.1956 339° North 414 476 30,400 660 Climbing Denver Center
09:51PM 41.5928 -105.2778 330° Northwest 413 475 31,100 540 Climbing Denver Center
09:52PM 41.6686 -105.3778 315° West 402 463 31,500 360 Climbing Denver Center
09:53PM 41.7447 -105.4825 314° West 406 467 31,900 240 Climbing Denver Center
09:54PM 41.8350 -105.6053 315° West 412 474 32,000  Climbing Denver Center
09:55PM 41.9125 -105.7136 314° West 417 480 32,000  Level Denver Center
09:56PM 41.9931 -105.8231 315° West 425 489 32,000  Level Denver Center
09:57PM 42.0847 -105.9525 314° West 428 493 32,000  Level Denver Center
09:58PM 42.1639 -106.0636 314° West 429 494 32,000  Level Denver Center
09:59PM 42.2439 -106.1764 314° West 433 498 32,000  Level Denver Center
10:00PM 42.3375 -106.3072 314° West 432 497 32,000  Level Denver Center
10:01PM 42.4169 -106.4208 313° West 434 499 32,000  Level Denver Center
10:02PM 42.4975 -106.5344 314° West 435 501 32,000  Level Denver Center
10:03PM 42.5897 -106.6683 313° West 434 499 32,000  Level Denver Center
10:04PM 42.6692 -106.7814 314° West 434 499 32,000  Level Denver Center
10:05PM 42.7478 -106.8969 313° West 434 499 32,000  Level Denver Center
10:06PM 42.8417 -107.0281 314° West 433 498 32,000  Level Denver Center
10:06PM 42.8861 -107.0769 321° Northwest 433 498 32,000  Level Salt Lake Center
10:07PM 42.9836 -107.1944 319° Northwest 439 505 32,000  Level Salt Lake Center
10:08PM 43.0747 -107.3044 319° Northwest 436 502 32,000  Level Salt Lake Center
10:09PM 43.1664 -107.4167 318° Northwest 441 507 32,000  Level Salt Lake Center
10:10PM 43.2586 -107.5297 318° Northwest 444 511 32,000  Level Salt Lake Center
10:11PM 43.3517 -107.6422 319° Northwest 445 512 32,000  Level Salt Lake Center
10:12PM 43.4450 -107.7564 318° Northwest 448 516 32,000  Level Salt Lake Center
10:13PM 43.5394 -107.8733 318° Northwest 454 522 32,000  Level Salt Lake Center
10:15PM 43.6333 -107.9886 318° Northwest 454 522 32,000  Level Salt Lake Center
10:16PM 43.7258 -108.1047 318° Northwest 449 517 32,000  Level Salt Lake Center
10:17PM 43.8194 -108.2197 318° Northwest 449 517 32,000  Level Salt Lake Center
10:18PM 43.9308 -108.3589 318° Northwest 450 518 32,000  Level Salt Lake Center
10:19PM 44.0228 -108.4761 318° Northwest 449 517 32,000  Level Salt Lake Center
10:20PM 44.1164 -108.5928 318° Northwest 450 518 32,000  Level Salt Lake Center
10:21PM 44.2092 -108.7108 318° Northwest 450 518 32,000  Level Salt Lake Center
10:22PM 44.3011 -108.8278 318° Northwest 448 516 32,000  Level Salt Lake Center
10:23PM 44.3933 -108.9453 318° Northwest 447 514 32,000  Level Salt Lake Center
10:24PM 44.4844 -109.0633 317° Northwest 446 513 32,000  Level Salt Lake Center
10:25PM 44.5750 -109.1797 318° Northwest 442 509 32,000  Level Salt Lake Center
10:26PM 44.6661 -109.2981 317° Northwest 446 513 32,000  Level Salt Lake Center
10:27PM 44.7572 -109.4178 317° Northwest 447 514 32,000  Level Salt Lake Center
10:28PM 44.8497 -109.5369 318° Northwest 450 518 32,000  Level Salt Lake Center
10:29PM 44.9406 -109.6586 317° Northwest 451 519 32,000  Level Salt Lake Center
10:30PM 45.0319 -109.7778 317° Northwest 450 518 32,000  Level Salt Lake Center
10:31PM 45.1406 -109.9219 317° Northwest 447 514 32,000  Level Salt Lake Center
10:32PM 45.2317 -110.0433 317° Northwest 449 517 32,000  Level Salt Lake Center
10:33PM 45.3211 -110.1650 316° Northwest 447 514 32,000  Level Salt Lake Center
10:34PM 45.4125 -110.2872 317° Northwest 451 519 32,000  Level Salt Lake Center
10:35PM 45.5044 -110.4108 317° Northwest 455 524 32,000 -300 Level Salt Lake Center
10:36PM 45.6019 -110.5281 320° Northwest 458 527 31,500 -1,140 Descending Salt Lake Center
10:37PM 45.7125 -110.6531 322° Northwest 464 534 29,800 -2,220 Descending Salt Lake Center
10:38PM 45.8117 -110.7697 321° Northwest 456 525 27,000 -2,760 Descending Salt Lake Center
10:39PM 45.9053 -110.8814 320° Northwest 435 501 24,200 -2,880 Descending Salt Lake Center
10:40PM 45.9958 -110.9906 320° Northwest 420 483 21,200 -2,940 Descending Salt Lake Center
10:41PM 46.0825 -111.0953 320° Northwest 402 463 18,300 -2,880 Descending Salt Lake Center
10:42PM 46.1636 -111.1928 320° Northwest 377 434 15,400 -2,160 Descending Salt Lake Center
10:43PM 46.2392 -111.2828 321° Northwest 350 403 14,000 -720 Descending Salt Lake Center
10:44PM 46.3058 -111.3656 319° Northwest 316 364 14,000 -540 Level Salt Lake Center
10:45PM 46.3750 -111.4506 320° Northwest 320 368 13,000 -1,020 Descending Salt Lake Center
10:47PM 46.4783 -111.6216 302° West  Level FlightAware Approximate
10:54PM 46.6000 -111.9667 North  Level FlightAware Approximate